createdAt,value
2022-09-22T00:01:53.206Z,97.45
2022-09-22T00:03:57.722Z,97.80
2022-09-22T00:06:02.728Z,97.44
2022-09-22T00:08:05.480Z,96.65
2022-09-22T00:10:08.653Z,98.85
2022-09-22T00:12:11.692Z,100.00
2022-09-22T00:14:16.717Z,100.00
2022-09-22T00:16:23.051Z,99.65
2022-09-22T00:18:25.860Z,98.49
2022-09-22T00:20:28.548Z,98.59
2022-09-22T00:22:31.263Z,98.81
2022-09-22T00:24:34.499Z,99.25
2022-09-22T00:26:38.128Z,100.00
2022-09-22T00:28:42.118Z,100.00
2022-09-22T00:30:45.513Z,100.00
2022-09-22T00:32:49.574Z,100.00
2022-09-22T00:34:52.428Z,99.43
2022-09-22T00:36:55.770Z,100.00
2022-09-22T00:38:59.843Z,100.00
2022-09-22T00:41:03.170Z,100.00
2022-09-22T00:43:17.845Z,100.00
2022-09-22T00:45:20.807Z,100.00
2022-09-22T00:47:44.414Z,100.00
2022-09-22T00:49:53.771Z,100.00
2022-09-22T00:51:56.563Z,100.00
2022-09-22T00:54:02.593Z,100.00
2022-09-22T00:56:08.937Z,100.00
2022-09-22T00:58:16.697Z,100.00
2022-09-22T01:00:19.828Z,100.00
2022-09-22T01:02:22.596Z,100.00
2022-09-22T01:04:25.335Z,100.00
2022-09-22T01:06:29.874Z,100.00
2022-09-22T01:08:34.534Z,100.00
2022-09-22T01:10:37.293Z,100.00
2022-09-22T01:12:45.635Z,100.00
2022-09-22T01:15:07.300Z,100.00
2022-09-22T01:17:19.105Z,100.00
2022-09-22T01:20:00.814Z,100.00
2022-09-22T01:22:15.942Z,100.00
2022-09-22T01:25:03.364Z,100.00
2022-09-22T01:27:39.332Z,100.00
2022-09-22T01:30:10.555Z,100.00
2022-09-22T01:32:19.723Z,100.00
2022-09-22T01:34:31.416Z,100.00
2022-09-22T01:36:38.766Z,100.00
2022-09-22T01:38:50.790Z,100.00
2022-09-22T01:40:59.043Z,100.00
2022-09-22T01:43:09.447Z,100.00
2022-09-22T01:45:18.599Z,100.00
2022-09-22T01:47:25.072Z,100.00
2022-09-22T01:49:33.365Z,100.00
2022-09-22T01:51:40.419Z,100.00
2022-09-22T01:53:48.351Z,100.00
2022-09-22T01:55:54.856Z,100.00
2022-09-22T01:58:02.059Z,100.00
2022-09-22T02:00:08.460Z,100.00
2022-09-22T02:02:24.264Z,100.00
2022-09-22T02:04:34.004Z,100.00
2022-09-22T02:06:40.949Z,100.00
2022-09-22T02:08:48.042Z,100.00
2022-09-22T02:10:54.065Z,100.00
2022-09-22T02:12:56.733Z,100.00
2022-09-22T02:14:59.704Z,100.00
2022-09-22T02:17:02.794Z,100.00
2022-09-22T02:19:13.629Z,100.00
2022-09-22T02:21:17.079Z,100.00
2022-09-22T02:23:19.868Z,100.00
2022-09-22T02:25:23.681Z,100.00
2022-09-22T02:27:36.514Z,100.00
2022-09-22T02:29:44.078Z,100.00
2022-09-22T02:31:47.449Z,100.00
2022-09-22T02:33:52.323Z,100.00
2022-09-22T02:36:05.548Z,100.00
2022-09-22T02:38:13.343Z,100.00
2022-09-22T02:40:24.210Z,100.00
2022-09-22T02:42:30.871Z,100.00
2022-09-22T02:44:42.375Z,100.00
2022-09-22T02:46:49.391Z,100.00
2022-09-22T02:48:55.571Z,100.00
2022-09-22T02:51:00.485Z,100.00
2022-09-22T02:53:14.349Z,100.00
2022-09-22T02:55:17.828Z,100.00
2022-09-22T02:57:21.144Z,100.00
2022-09-22T02:59:23.966Z,100.00
2022-09-22T03:01:27.512Z,100.00
2022-09-22T03:03:30.354Z,100.00
2022-09-22T03:05:33.124Z,100.00
2022-09-22T03:07:37.245Z,100.00
2022-09-22T03:09:40.114Z,100.00
2022-09-22T03:11:43.044Z,100.00
2022-09-22T03:13:45.775Z,100.00
2022-09-22T03:15:49.837Z,100.00
2022-09-22T03:17:52.659Z,100.00
2022-09-22T03:19:55.411Z,100.00
2022-09-22T03:21:58.175Z,100.00
2022-09-22T03:24:03.352Z,100.00
2022-09-22T03:26:06.453Z,100.00
2022-09-22T03:28:09.244Z,100.00
2022-09-22T03:30:12.799Z,100.00
2022-09-22T03:32:15.559Z,100.00
2022-09-22T03:34:18.299Z,100.00
2022-09-22T03:36:21.456Z,100.00
2022-09-22T03:38:24.195Z,100.00
2022-09-22T03:40:28.451Z,100.00
2022-09-22T03:42:32.885Z,100.00
2022-09-22T03:44:35.914Z,100.00
2022-09-22T03:46:38.640Z,100.00
2022-09-22T03:48:44.977Z,100.00
2022-09-22T03:50:48.089Z,100.00
2022-09-22T03:52:50.859Z,100.00
2022-09-22T03:54:54.462Z,100.00
2022-09-22T03:56:58.976Z,100.00
2022-09-22T03:59:01.879Z,100.00
2022-09-22T04:01:05.981Z,100.00
2022-09-22T04:03:08.924Z,100.00
2022-09-22T04:05:12.012Z,100.00
2022-09-22T04:07:14.801Z,100.00
2022-09-22T04:09:18.425Z,100.00
2022-09-22T04:11:21.604Z,100.00
2022-09-22T04:13:25.720Z,100.00
2022-09-22T04:15:28.428Z,100.00
2022-09-22T04:17:31.133Z,100.00
2022-09-22T04:19:35.586Z,100.00
2022-09-22T04:21:38.314Z,100.00
2022-09-22T04:23:41.036Z,100.00
2022-09-22T04:25:44.134Z,100.00
2022-09-22T04:27:46.933Z,100.00
2022-09-22T04:29:51.079Z,100.00
2022-09-22T04:31:53.837Z,100.00
2022-09-22T04:33:56.661Z,100.00
2022-09-22T04:35:59.676Z,100.00
2022-09-22T04:38:02.729Z,100.00
2022-09-22T04:40:06.550Z,100.00
2022-09-22T04:42:09.920Z,100.00
2022-09-22T04:44:12.721Z,100.00
2022-09-22T04:46:16.858Z,100.00
2022-09-22T04:48:19.651Z,100.00
2022-09-22T04:50:24.000Z,100.00
2022-09-22T04:52:27.410Z,100.00
2022-09-22T04:54:30.120Z,100.00
2022-09-22T04:56:32.869Z,100.00
2022-09-22T04:58:35.599Z,100.00
2022-09-22T05:00:38.854Z,100.00
2022-09-22T05:02:42.979Z,100.00
2022-09-22T05:04:45.736Z,100.00
2022-09-22T05:06:48.503Z,100.00
2022-09-22T05:08:51.236Z,100.00
2022-09-22T05:10:53.978Z,100.00
2022-09-22T05:12:56.717Z,100.00
2022-09-22T05:15:00.331Z,100.00
2022-09-22T05:17:03.226Z,100.00
2022-09-22T05:19:07.310Z,100.00
2022-09-22T05:21:10.091Z,100.00
2022-09-22T05:23:12.893Z,100.00
2022-09-22T05:25:19.164Z,100.00
2022-09-22T05:27:21.907Z,100.00
2022-09-22T05:29:27.783Z,100.00
2022-09-22T05:31:30.923Z,100.00
2022-09-22T05:33:33.691Z,100.00
2022-09-22T05:35:37.785Z,100.00
2022-09-22T05:37:40.510Z,100.00
2022-09-22T05:39:43.225Z,100.00
2022-09-22T05:41:45.969Z,100.00
2022-09-22T05:43:48.711Z,100.00
2022-09-22T05:45:51.442Z,100.00
2022-09-22T05:47:54.216Z,100.00
2022-09-22T05:49:56.966Z,100.00
2022-09-22T05:52:01.044Z,100.00
2022-09-22T05:54:03.825Z,100.00
2022-09-22T05:56:06.738Z,100.00
2022-09-22T05:58:11.880Z,100.00
2022-09-22T06:00:14.964Z,100.00
2022-09-22T06:02:25.704Z,100.00
2022-09-22T06:04:29.416Z,100.00
2022-09-22T06:06:32.162Z,100.00
2022-09-22T06:08:36.301Z,100.00
2022-09-22T06:10:40.000Z,100.00
2022-09-22T06:12:42.785Z,100.00
2022-09-22T06:14:45.781Z,100.00
2022-09-22T06:16:48.920Z,100.00
2022-09-22T06:18:51.650Z,100.00
2022-09-22T06:20:56.284Z,100.00
2022-09-22T06:22:59.950Z,100.00
2022-09-22T06:25:04.810Z,100.00
2022-09-22T06:27:07.551Z,100.00
2022-09-22T06:29:10.673Z,100.00
2022-09-22T06:31:15.253Z,100.00
2022-09-22T06:33:18.123Z,100.00
2022-09-22T06:35:20.968Z,100.00
2022-09-22T06:37:23.784Z,100.00
2022-09-22T06:39:26.615Z,100.00
2022-09-22T06:41:34.110Z,100.00
2022-09-22T06:43:39.573Z,100.00
2022-09-22T06:45:42.999Z,100.00
2022-09-22T06:47:45.950Z,100.00
2022-09-22T06:49:48.736Z,100.00
2022-09-22T06:51:52.194Z,100.00
2022-09-22T06:53:55.315Z,100.00
2022-09-22T06:56:01.990Z,100.00
2022-09-22T06:58:06.078Z,100.00
2022-09-22T07:00:10.237Z,100.00
2022-09-22T07:02:13.206Z,100.00
2022-09-22T07:04:16.753Z,100.00
2022-09-22T07:06:20.527Z,100.00
2022-09-22T07:08:24.342Z,100.00
2022-09-22T07:10:27.127Z,100.00
2022-09-22T07:12:31.291Z,100.00
2022-09-22T07:14:35.391Z,100.00
2022-09-22T07:16:39.984Z,100.00
2022-09-22T07:18:44.876Z,100.00
2022-09-22T07:20:47.673Z,100.00
2022-09-22T07:22:50.591Z,100.00
2022-09-22T07:24:53.316Z,100.00
2022-09-22T07:26:55.995Z,100.00
2022-09-22T07:29:00.364Z,100.00
2022-09-22T07:31:06.285Z,100.00
2022-09-22T07:33:09.155Z,100.00
2022-09-22T07:35:11.866Z,100.00
2022-09-22T07:37:15.786Z,100.00
2022-09-22T07:39:18.577Z,100.00
2022-09-22T07:41:23.370Z,100.00
2022-09-22T07:43:26.204Z,100.00
2022-09-22T07:45:29.086Z,100.00
2022-09-22T07:47:50.744Z,100.00
2022-09-22T07:49:53.981Z,100.00
2022-09-22T07:51:57.447Z,99.28
2022-09-22T07:54:07.132Z,98.53
2022-09-22T07:56:12.534Z,97.57
2022-09-22T07:58:17.369Z,97.98
2022-09-22T08:00:20.394Z,98.66
2022-09-22T08:02:28.691Z,99.98
2022-09-22T08:04:33.538Z,99.32
2022-09-22T08:06:36.276Z,98.36
2022-09-22T08:08:39.829Z,95.50
2022-09-22T08:10:42.545Z,92.74
2022-09-22T08:12:45.617Z,91.82
2022-09-22T08:14:48.692Z,91.01
2022-09-22T08:16:51.907Z,87.84
2022-09-22T08:18:56.476Z,88.16
2022-09-22T08:21:01.867Z,86.18
2022-09-22T08:23:05.510Z,85.00
2022-09-22T08:25:12.338Z,84.69
2022-09-22T08:27:15.355Z,83.53
2022-09-22T08:29:18.579Z,83.63
2022-09-22T08:31:22.189Z,83.11
2022-09-22T08:33:25.318Z,82.84
2022-09-22T08:35:27.995Z,81.29
2022-09-22T08:37:32.179Z,81.31
2022-09-22T08:39:36.825Z,80.77
2022-09-22T08:41:48.096Z,80.56
2022-09-22T08:43:55.565Z,78.98
2022-09-22T08:45:59.741Z,78.39
2022-09-22T08:48:25.828Z,77.40
2022-09-22T08:50:55.416Z,76.78
2022-09-22T08:53:00.118Z,76.74
2022-09-22T08:55:04.154Z,75.35
2022-09-22T08:57:42.670Z,74.08
2022-09-22T08:59:53.405Z,73.54
2022-09-22T09:02:43.832Z,74.00
2022-09-22T09:05:20.927Z,73.19
2022-09-22T09:07:31.371Z,73.12
2022-09-22T09:09:46.831Z,72.63
2022-09-22T09:12:23.866Z,74.46
2022-09-22T09:14:41.389Z,72.31
2022-09-22T09:16:49.853Z,70.13
2022-09-22T09:18:58.797Z,69.77
2022-09-22T09:21:05.266Z,67.71
2022-09-22T09:23:16.191Z,67.84
2022-09-22T09:25:25.495Z,67.04
2022-09-22T09:27:34.377Z,65.45
2022-09-22T09:29:43.076Z,64.52
2022-09-22T09:31:50.056Z,65.28
2022-09-22T09:33:58.835Z,64.34
2022-09-22T09:36:02.667Z,60.99
2022-09-22T09:38:12.303Z,60.47
2022-09-22T09:40:18.395Z,59.49
2022-09-22T09:42:25.866Z,57.72
2022-09-22T09:44:32.316Z,55.72
2022-09-22T09:46:55.887Z,55.82
2022-09-22T09:49:09.837Z,56.23
2022-09-22T09:51:14.259Z,54.30
2022-09-22T09:53:31.233Z,53.88
2022-09-22T09:55:35.307Z,52.47
2022-09-22T09:58:03.041Z,53.04
2022-09-22T10:00:36.165Z,53.26
2022-09-22T10:02:49.199Z,50.97
2022-09-22T10:04:54.496Z,50.59
2022-09-22T10:07:11.406Z,50.65
2022-09-22T10:09:29.488Z,49.47
2022-09-22T10:11:33.593Z,49.85
2022-09-22T10:13:38.783Z,48.72
2022-09-22T10:15:43.142Z,48.20
2022-09-22T10:17:45.972Z,47.38
2022-09-22T10:19:50.693Z,47.73
2022-09-22T10:21:55.997Z,48.50
2022-09-22T10:24:01.766Z,47.18
2022-09-22T10:26:17.200Z,45.03
2022-09-22T10:28:21.954Z,44.18
2022-09-22T10:30:27.582Z,44.89
2022-09-22T10:32:31.005Z,44.07
2022-09-22T10:34:35.794Z,42.38
2022-09-22T10:36:45.967Z,43.58
2022-09-22T10:38:50.565Z,44.01
2022-09-22T10:40:57.770Z,42.71
2022-09-22T10:43:01.533Z,43.57
2022-09-22T10:45:09.742Z,41.79
2022-09-22T10:47:27.481Z,40.69
2022-09-22T10:49:44.484Z,39.96
2022-09-22T10:52:04.030Z,40.10
2022-09-22T10:54:34.102Z,39.74
2022-09-22T10:56:40.983Z,38.55
2022-09-22T10:59:01.981Z,38.10
2022-09-22T11:01:19.289Z,37.72
2022-09-22T11:03:55.364Z,37.44
2022-09-22T11:06:38.274Z,37.61
2022-09-22T11:09:06.767Z,38.70
2022-09-22T11:11:37.346Z,36.94
2022-09-22T11:13:53.795Z,36.41
2022-09-22T11:16:16.764Z,36.30
2022-09-22T11:18:39.021Z,36.07
2022-09-22T11:20:46.226Z,35.43
2022-09-22T11:23:15.281Z,34.86
2022-09-22T11:25:31.149Z,35.10
2022-09-22T11:27:49.626Z,35.11
2022-09-22T11:30:14.896Z,34.55
2022-09-22T11:32:32.582Z,35.04
2022-09-22T11:34:51.025Z,34.29
2022-09-22T11:37:01.011Z,33.36
2022-09-22T11:39:21.416Z,33.21
2022-09-22T11:41:31.515Z,33.67
2022-09-22T11:43:58.558Z,32.92
2022-09-22T11:46:07.761Z,33.47
2022-09-22T11:48:23.171Z,33.04
2022-09-22T11:50:44.384Z,32.92
2022-09-22T11:53:07.712Z,33.74
2022-09-22T11:55:26.626Z,33.29
2022-09-22T11:57:36.153Z,33.04
2022-09-22T11:59:44.786Z,32.28
2022-09-22T12:01:49.772Z,32.10
2022-09-22T12:03:56.637Z,31.82
2022-09-22T12:06:03.769Z,32.19
2022-09-22T12:08:12.996Z,33.84
2022-09-22T12:10:19.859Z,32.90
2022-09-22T12:12:25.208Z,31.76
2022-09-22T12:14:28.548Z,32.07
2022-09-22T12:16:41.639Z,31.32
2022-09-22T12:18:50.548Z,30.74
2022-09-22T12:21:01.322Z,30.25
2022-09-22T12:23:20.506Z,31.22
2022-09-22T12:25:48.409Z,30.89
2022-09-22T12:27:58.617Z,31.00
2022-09-22T12:30:04.014Z,30.78
2022-09-22T12:32:07.657Z,31.02
2022-09-22T12:34:18.863Z,31.97
2022-09-22T12:36:30.441Z,31.17
2022-09-22T12:38:35.078Z,31.94
2022-09-22T12:40:41.458Z,32.37
2022-09-22T12:42:50.707Z,31.87
2022-09-22T12:44:56.256Z,32.50
2022-09-22T12:47:02.579Z,32.06
2022-09-22T12:49:09.161Z,31.92
2022-09-22T12:51:31.289Z,29.99
2022-09-22T12:53:37.991Z,29.76
2022-09-22T12:55:42.890Z,29.71
2022-09-22T12:57:46.803Z,28.94
2022-09-22T13:00:16.115Z,29.29
2022-09-22T13:02:29.403Z,28.88
2022-09-22T13:04:32.144Z,31.82
2022-09-22T13:06:55.241Z,30.41
2022-09-22T13:09:21.361Z,29.50
2022-09-22T13:11:57.389Z,28.47
2022-09-22T13:14:00.244Z,29.28
2022-09-22T13:16:05.038Z,28.31
2022-09-22T13:18:31.989Z,28.25
2022-09-22T13:20:36.460Z,28.14
2022-09-22T13:22:40.908Z,27.37
2022-09-22T13:24:45.134Z,27.18
2022-09-22T13:26:47.878Z,27.13
2022-09-22T13:29:00.568Z,26.62
2022-09-22T13:31:10.160Z,26.84
2022-09-22T13:33:20.422Z,27.08
2022-09-22T13:35:28.059Z,26.64
2022-09-22T13:37:32.097Z,27.37
2022-09-22T13:39:41.229Z,29.57
2022-09-22T13:41:52.238Z,31.49
2022-09-22T13:43:59.518Z,29.48
2022-09-22T13:46:04.573Z,28.43
2022-09-22T13:48:09.720Z,28.28
2022-09-22T13:50:19.760Z,29.01
2022-09-22T13:52:27.710Z,26.81
2022-09-22T13:54:35.185Z,27.18
2022-09-22T13:56:38.159Z,26.70
2022-09-22T13:58:45.879Z,26.28
2022-09-22T14:01:12.641Z,27.00
2022-09-22T14:03:20.717Z,26.42
2022-09-22T14:05:27.919Z,26.13
2022-09-22T14:07:36.162Z,26.29
2022-09-22T14:09:49.695Z,25.14
2022-09-22T14:11:53.491Z,26.12
2022-09-22T14:14:02.080Z,28.16
2022-09-22T14:16:10.069Z,27.60
2022-09-22T14:18:18.660Z,28.50
2022-09-22T14:20:21.459Z,27.20
2022-09-22T14:22:25.998Z,27.06
2022-09-22T14:24:30.006Z,26.49
2022-09-22T14:26:37.569Z,26.83
2022-09-22T14:28:42.716Z,26.67
2022-09-22T14:30:47.550Z,26.73
2022-09-22T14:32:54.166Z,26.04
2022-09-22T14:34:58.609Z,25.90
2022-09-22T14:37:04.986Z,26.51
2022-09-22T14:39:10.485Z,25.70
2022-09-22T14:41:22.948Z,32.22
2022-09-22T14:43:37.774Z,33.30
2022-09-22T14:45:59.493Z,28.81
2022-09-22T14:48:18.385Z,30.73
2022-09-22T14:50:39.325Z,32.14
2022-09-22T14:52:48.401Z,29.02
2022-09-22T14:54:51.401Z,30.39
2022-09-22T14:56:54.133Z,30.20
2022-09-22T14:58:59.735Z,29.18
2022-09-22T15:01:24.045Z,28.66
2022-09-22T15:03:30.191Z,28.97
2022-09-22T15:05:33.822Z,29.09
2022-09-22T15:07:38.197Z,30.39
2022-09-22T15:09:43.738Z,29.87
2022-09-22T15:11:48.196Z,29.51
2022-09-22T15:13:52.756Z,29.36
2022-09-22T15:15:55.472Z,30.04
2022-09-22T15:18:16.166Z,28.30
2022-09-22T15:20:19.141Z,29.48
2022-09-22T15:22:21.878Z,29.28
2022-09-22T15:24:26.908Z,28.28
2022-09-22T15:26:32.801Z,28.86
2022-09-22T15:28:37.552Z,28.99
2022-09-22T15:30:40.689Z,27.87
2022-09-22T15:32:46.406Z,27.10
2022-09-22T15:34:51.194Z,27.43
2022-09-22T15:36:55.830Z,27.18
2022-09-22T15:39:01.124Z,26.69
2022-09-22T15:41:03.882Z,25.99
2022-09-22T15:43:13.189Z,25.54
2022-09-22T15:45:18.832Z,25.41
2022-09-22T15:47:21.538Z,25.40
2022-09-22T15:49:26.366Z,25.19
2022-09-22T15:51:31.608Z,25.34
2022-09-22T15:53:35.467Z,25.60
2022-09-22T15:55:38.222Z,25.58
2022-09-22T15:57:42.543Z,25.14
2022-09-22T15:59:46.062Z,25.98
2022-09-22T16:01:49.236Z,25.41
2022-09-22T16:03:52.578Z,25.13
2022-09-22T16:05:58.769Z,24.82
2022-09-22T16:08:03.242Z,24.82
2022-09-22T16:10:06.656Z,24.98
2022-09-22T16:12:11.061Z,24.73
2022-09-22T16:14:14.115Z,25.10
2022-09-22T16:16:18.229Z,25.65
2022-09-22T16:18:21.003Z,25.49
2022-09-22T16:20:23.737Z,25.11
2022-09-22T16:22:26.554Z,25.25
2022-09-22T16:24:30.989Z,25.43
2022-09-22T16:26:33.752Z,25.35
2022-09-22T16:28:36.710Z,25.74
2022-09-22T16:30:39.560Z,26.12
2022-09-22T16:32:43.420Z,26.28
2022-09-22T16:34:46.237Z,26.76
2022-09-22T16:36:52.206Z,27.43
2022-09-22T16:38:55.466Z,28.06
2022-09-22T16:41:03.485Z,29.04
2022-09-22T16:43:08.784Z,30.25
2022-09-22T16:45:11.885Z,30.68
2022-09-22T16:47:13.716Z,31.10
2022-09-22T16:49:17.406Z,31.41
2022-09-22T16:51:20.527Z,30.63
2022-09-22T16:53:24.195Z,30.57
2022-09-22T16:55:26.972Z,30.13
2022-09-22T16:57:31.048Z,30.04
2022-09-22T16:59:34.509Z,30.44
2022-09-22T17:01:38.655Z,31.12
2022-09-22T17:03:41.781Z,32.65
2022-09-22T17:05:45.051Z,34.41
2022-09-22T17:07:49.362Z,35.90
2022-09-22T17:09:52.445Z,38.36
2022-09-22T17:11:55.304Z,38.69
2022-09-22T17:14:01.432Z,42.22
2022-09-22T17:16:09.698Z,42.19
2022-09-22T17:18:12.508Z,43.15
2022-09-22T17:20:17.933Z,43.42
2022-09-22T17:22:21.357Z,44.48
2022-09-22T17:24:25.340Z,44.55
2022-09-22T17:26:29.944Z,45.24
2022-09-22T17:28:32.742Z,46.31
2022-09-22T17:30:37.047Z,46.22
2022-09-22T17:32:39.959Z,46.47
2022-09-22T17:34:44.054Z,46.55
2022-09-22T17:36:46.793Z,47.23
2022-09-22T17:38:51.310Z,47.65
2022-09-22T17:40:55.934Z,48.07
2022-09-22T17:43:01.697Z,48.94
2022-09-22T17:45:07.327Z,49.91
2022-09-22T17:47:29.137Z,49.71
2022-09-22T17:49:49.325Z,51.98
2022-09-22T17:52:09.683Z,52.58
2022-09-22T17:54:37.363Z,53.10
2022-09-22T17:56:40.082Z,53.33
2022-09-22T17:58:42.852Z,53.62
2022-09-22T18:00:46.907Z,54.26
2022-09-22T18:02:52.635Z,54.47
2022-09-22T18:04:55.737Z,55.37
2022-09-22T18:07:00.214Z,57.01
2022-09-22T18:09:03.237Z,57.49
2022-09-22T18:11:06.939Z,57.23
2022-09-22T18:13:10.361Z,57.30
2022-09-22T18:15:15.039Z,58.68
2022-09-22T18:17:20.339Z,59.15
2022-09-22T18:19:27.624Z,60.19
2022-09-22T18:21:30.369Z,61.24
2022-09-22T18:23:33.142Z,61.82
2022-09-22T18:25:35.890Z,61.17
2022-09-22T18:27:39.965Z,62.48
2022-09-22T18:29:42.837Z,64.84
2022-09-22T18:31:45.852Z,65.09
2022-09-22T18:33:48.579Z,65.05
2022-09-22T18:35:52.857Z,65.14
2022-09-22T18:37:55.597Z,64.94
2022-09-22T18:39:58.355Z,65.72
2022-09-22T18:42:01.096Z,67.35
2022-09-22T18:44:04.505Z,67.02
2022-09-22T18:46:07.389Z,68.22
2022-09-22T18:48:10.196Z,68.66
2022-09-22T18:50:13.449Z,67.92
2022-09-22T18:52:21.585Z,68.81
2022-09-22T18:54:24.463Z,69.10
2022-09-22T18:56:27.624Z,70.33
2022-09-22T18:58:32.967Z,70.14
2022-09-22T19:00:35.739Z,70.95
2022-09-22T19:02:39.439Z,72.30
2022-09-22T19:04:42.456Z,72.54
2022-09-22T19:07:03.173Z,71.69
2022-09-22T19:09:07.354Z,72.23
2022-09-22T19:11:11.058Z,74.70
2022-09-22T19:13:16.908Z,73.99
2022-09-22T19:15:20.015Z,73.73
2022-09-22T19:17:24.378Z,74.68
2022-09-22T19:19:27.266Z,74.80
2022-09-22T19:21:31.286Z,73.64
2022-09-22T19:23:34.016Z,76.48
2022-09-22T19:25:39.832Z,75.88
2022-09-22T19:27:43.118Z,77.23
2022-09-22T19:29:45.812Z,75.69
2022-09-22T19:31:48.801Z,76.81
2022-09-22T19:33:51.520Z,77.90
2022-09-22T19:35:54.252Z,75.67
2022-09-22T19:37:57.034Z,78.10
2022-09-22T19:39:59.849Z,78.62
2022-09-22T19:42:03.964Z,79.35
2022-09-22T19:44:07.095Z,78.57
2022-09-22T19:46:09.910Z,79.20
2022-09-22T19:48:14.230Z,79.93
2022-09-22T19:50:17.099Z,79.91
2022-09-22T19:52:19.859Z,80.88
2022-09-22T19:54:22.613Z,81.03
2022-09-22T19:56:25.352Z,80.87
2022-09-22T19:58:29.406Z,81.40
2022-09-22T20:00:32.226Z,82.32
2022-09-22T20:02:35.484Z,81.76
2022-09-22T20:04:38.579Z,80.75
2022-09-22T20:06:41.433Z,81.71
2022-09-22T20:08:44.143Z,82.01
2022-09-22T20:10:49.296Z,81.70
2022-09-22T20:12:52.109Z,83.57
2022-09-22T20:14:56.197Z,84.06
2022-09-22T20:17:00.769Z,82.18
2022-09-22T20:19:03.510Z,83.30
2022-09-22T20:21:11.185Z,85.13
2022-09-22T20:23:15.778Z,84.29
2022-09-22T20:25:23.763Z,85.17
2022-09-22T20:27:29.069Z,85.17
2022-09-22T20:29:31.916Z,84.04
2022-09-22T20:31:36.546Z,85.49
2022-09-22T20:33:40.417Z,86.57
2022-09-22T20:35:43.388Z,85.09
2022-09-22T20:37:46.342Z,84.93
2022-09-22T20:39:49.238Z,85.48
2022-09-22T20:41:52.906Z,85.77
2022-09-22T20:43:55.777Z,83.16
2022-09-22T20:46:03.568Z,87.69
2022-09-22T20:48:07.886Z,86.22
2022-09-22T20:50:12.109Z,87.34
2022-09-22T20:52:15.779Z,87.96
2022-09-22T20:54:18.569Z,88.98
2022-09-22T20:56:21.287Z,86.09
2022-09-22T20:58:24.073Z,88.47
2022-09-22T21:00:26.791Z,90.77
2022-09-22T21:02:30.923Z,90.74
2022-09-22T21:04:35.162Z,90.70
2022-09-22T21:06:37.906Z,91.31
2022-09-22T21:08:59.255Z,91.62
2022-09-22T21:11:02.128Z,90.94
2022-09-22T21:13:05.259Z,92.39
2022-09-22T21:15:08.446Z,91.30
2022-09-22T21:17:11.166Z,92.93
2022-09-22T21:19:13.913Z,92.52
2022-09-22T21:21:19.733Z,93.37
2022-09-22T21:23:22.452Z,91.91
2022-09-22T21:25:26.095Z,92.97
2022-09-22T21:27:29.055Z,92.75
2022-09-22T21:29:31.847Z,93.27
2022-09-22T21:31:35.739Z,95.06
2022-09-22T21:33:38.638Z,93.49
2022-09-22T21:35:41.440Z,91.41
2022-09-22T21:37:45.758Z,92.64
2022-09-22T21:39:48.534Z,91.68
2022-09-22T21:41:51.312Z,94.35
2022-09-22T21:43:55.051Z,95.21
2022-09-22T21:46:04.351Z,93.81
2022-09-22T21:48:08.038Z,92.55
2022-09-22T21:50:11.076Z,92.99
2022-09-22T21:52:13.851Z,94.94
2022-09-22T21:54:19.366Z,94.66
2022-09-22T21:56:23.677Z,93.29
2022-09-22T21:58:27.518Z,92.81
2022-09-22T22:00:50.825Z,91.72
2022-09-22T22:03:11.845Z,94.11
2022-09-22T22:05:14.820Z,94.27
2022-09-22T22:07:17.720Z,94.11
2022-09-22T22:09:23.642Z,95.36
2022-09-22T22:11:28.427Z,95.86
2022-09-22T22:13:33.559Z,95.72
2022-09-22T22:15:36.356Z,95.84
2022-09-22T22:17:39.063Z,97.13
2022-09-22T22:19:41.771Z,97.19
2022-09-22T22:21:46.059Z,96.83
2022-09-22T22:23:52.251Z,98.30
2022-09-22T22:25:58.957Z,99.37
2022-09-22T22:28:01.865Z,98.31
2022-09-22T22:30:04.979Z,98.66
2022-09-22T22:32:09.364Z,98.01
2022-09-22T22:34:14.056Z,97.68
2022-09-22T22:36:19.013Z,100.00
2022-09-22T22:38:22.496Z,100.00
2022-09-22T22:40:25.214Z,98.01
2022-09-22T22:42:29.253Z,95.12
2022-09-22T22:44:31.974Z,94.77
2022-09-22T22:46:35.306Z,95.57
2022-09-22T22:48:38.813Z,96.18
2022-09-22T22:50:42.567Z,96.61
2022-09-22T22:52:46.036Z,98.52
2022-09-22T22:54:48.696Z,100.00
2022-09-22T22:56:51.746Z,100.00
2022-09-22T22:58:56.389Z,99.70
2022-09-22T23:01:02.799Z,100.00
2022-09-22T23:03:05.578Z,100.00
2022-09-22T23:05:09.244Z,100.00
2022-09-22T23:07:12.014Z,100.00
2022-09-22T23:09:17.397Z,100.00
2022-09-22T23:11:23.202Z,100.00
2022-09-22T23:13:29.133Z,100.00
2022-09-22T23:15:33.519Z,100.00
2022-09-22T23:17:36.501Z,100.00
2022-09-22T23:19:40.667Z,100.00
2022-09-22T23:21:44.900Z,100.00
2022-09-22T23:23:49.245Z,100.00
2022-09-22T23:25:53.292Z,100.00
2022-09-22T23:27:56.073Z,100.00
2022-09-22T23:29:58.996Z,100.00
2022-09-22T23:32:03.755Z,100.00
2022-09-22T23:34:06.615Z,100.00
2022-09-22T23:36:12.874Z,100.00
2022-09-22T23:38:17.515Z,100.00
2022-09-22T23:40:20.382Z,100.00
2022-09-22T23:42:23.438Z,100.00
2022-09-22T23:44:26.212Z,100.00
2022-09-22T23:46:29.054Z,100.00
2022-09-22T23:48:33.424Z,100.00
2022-09-22T23:50:36.758Z,100.00
2022-09-22T23:52:39.525Z,100.00
2022-09-22T23:54:42.317Z,100.00
2022-09-22T23:56:45.895Z,100.00
2022-09-22T23:58:48.731Z,100.00
